Time;durP1;ratioP1;P1;durP2;ratioP2;P2;SDS_P1;SDS_P2;PMS_P1;PMS_P2;Temp;Humidity;BMP_temperature;BMP_pressure;BME280_temperature;BME280_humidity;BME280_pressure;Samples;Min_cycle;Max_cycle;Signal;HPM_P1;HPM_P2
2024/03/20 00:01:04;;;;;;;26.02;23.73;;;;;;;;;;4198300;28;20072;-56
2024/03/20 00:03:05;;;;;;;25.80;23.75;;;;;;;;;;4197765;28;20123;-56
2024/03/20 00:05:06;;;;;;;21.27;19.65;;;;;;;;;;4198046;28;20037;-56
2024/03/20 00:07:07;;;;;;;20.55;19.10;;;;;;;;;;4197887;28;20492;-55
2024/03/20 00:09:07;;;;;;;19.02;18.13;;;;;;;;;;4198054;28;20546;-56
2024/03/20 00:11:08;;;;;;;19.85;18.65;;;;;;;;;;4200999;28;20431;-56
2024/03/20 00:13:08;;;;;;;16.90;16.00;;;;;;;;;;4214494;28;20063;-56
2024/03/20 00:15:09;;;;;;;19.17;18.27;;;;;;;;;;4214581;28;20047;-56
2024/03/20 00:17:10;;;;;;;19.83;18.88;;;;;;;;;;4214452;28;20040;-56
2024/03/20 00:19:10;;;;;;;19.88;18.90;;;;;;;;;;4214538;28;20048;-55
2024/03/20 00:21:11;;;;;;;19.73;18.90;;;;;;;;;;4214358;28;20058;-56
2024/03/20 00:23:12;;;;;;;19.60;18.70;;;;;;;;;;4214376;28;20117;-56
2024/03/20 00:25:13;;;;;;;20.00;18.77;;;;;;;;;;4214460;28;20265;-56
2024/03/20 00:27:15;;;;;;;20.42;19.52;;;;;;;;;;4197742;28;20039;-57
2024/03/20 00:29:16;;;;;;;20.97;20.07;;;;;;;;;;4214435;28;20089;-56
2024/03/20 00:31:16;;;;;;;20.38;19.48;;;;;;;;;;4214181;28;20044;-56
2024/03/20 00:33:17;;;;;;;17.27;16.23;;;;;;;;;;4214103;28;20352;-56
2024/03/20 00:35:18;;;;;;;20.02;19.10;;;;;;;;;;4214281;28;20123;-56
2024/03/20 00:37:18;;;;;;;18.52;17.83;;;;;;;;;;4197435;28;20045;-56
2024/03/20 00:39:19;;;;;;;20.30;19.40;;;;;;;;;;4214350;28;20078;-57
2024/03/20 00:41:19;;;;;;;19.90;18.85;;;;;;;;;;4214121;28;20064;-56
2024/03/20 00:43:20;;;;;;;20.40;19.17;;;;;;;;;;4214121;28;20534;-55
2024/03/20 00:45:21;;;;;;;20.55;19.50;;;;;;;;;;4214353;28;20185;-56
2024/03/20 00:47:21;;;;;;;18.35;16.75;;;;;;;;;;4214039;28;20036;-55
2024/03/20 00:49:22;;;;;;;16.40;15.75;;;;;;;;;;4214073;28;20040;-56
2024/03/20 00:51:22;;;;;;;15.45;14.95;;;;;;;;;;4213100;28;20119;-57
2024/03/20 00:53:23;;;;;;;17.10;16.20;;;;;;;;;;4213887;28;20094;-57
2024/03/20 00:55:24;;;;;;;18.60;18.00;;;;;;;;;;4213832;28;20044;-56
2024/03/20 00:57:25;;;;;;;17.70;16.95;;;;;;;;;;4197093;28;20046;-55
2024/03/20 00:59:25;;;;;;;17.52;16.90;;;;;;;;;;4197383;28;20033;-57
2024/03/20 01:01:26;;;;;;;16.65;16.20;;;;;;;;;;4197123;28;20040;-56
2024/03/20 01:03:26;;;;;;;15.35;15.00;;;;;;;;;;4196788;28;20052;-55
2024/03/20 01:05:27;;;;;;;19.33;18.55;;;;;;;;;;4196972;28;20048;-56
2024/03/20 01:07:28;;;;;;;19.40;18.77;;;;;;;;;;4200941;28;20044;-56
2024/03/20 01:09:28;;;;;;;21.60;20.23;;;;;;;;;;4213567;28;20130;-56
2024/03/20 01:11:29;;;;;;;20.85;20.15;;;;;;;;;;4213763;28;20115;-55
2024/03/20 01:13:29;;;;;;;22.42;21.48;;;;;;;;;;4213583;28;20042;-56
2024/03/20 01:15:30;;;;;;;22.45;21.55;;;;;;;;;;4213557;28;20044;-56
2024/03/20 01:17:33;;;;;;;22.80;22.00;;;;;;;;;;4213520;28;20523;-56
2024/03/20 01:19:34;;;;;;;22.67;21.55;;;;;;;;;;4213674;28;20495;-56
2024/03/20 01:21:35;;;;;;;21.63;20.77;;;;;;;;;;4213564;28;20043;-55
2024/03/20 01:23:35;;;;;;;25.38;24.08;;;;;;;;;;4213527;28;20092;-56
2024/03/20 01:25:36;;;;;;;25.88;24.58;;;;;;;;;;4213313;28;20058;-55
2024/03/20 01:27:38;;;;;;;26.88;25.48;;;;;;;;;;4213558;28;20127;-56
2024/03/20 01:29:38;;;;;;;26.38;25.02;;;;;;;;;;4196465;28;20033;-56
2024/03/20 01:31:39;;;;;;;27.20;25.98;;;;;;;;;;4213248;28;20118;-56
2024/03/20 01:33:39;;;;;;;23.50;22.40;;;;;;;;;;4213317;28;20602;-56
2024/03/20 01:35:40;;;;;;;19.25;18.45;;;;;;;;;;4213268;28;20036;-55
2024/03/20 01:37:40;;;;;;;20.55;19.15;;;;;;;;;;4213072;28;20110;-56
2024/03/20 01:39:41;;;;;;;18.48;17.65;;;;;;;;;;4213014;28;20040;-56
2024/03/20 01:41:42;;;;;;;20.23;19.10;;;;;;;;;;4213196;28;20543;-56
2024/03/20 01:43:51;;;;;;;22.25;21.27;;;;;;;;;;4213120;28;20074;-56
2024/03/20 01:45:51;;;;;;;25.17;23.85;;;;;;;;;;4213153;28;20036;-56
2024/03/20 01:47:52;;;;;;;25.27;23.15;;;;;;;;;;4213080;28;20044;-55
2024/03/20 01:49:53;;;;;;;21.60;20.50;;;;;;;;;;4213011;28;20047;-55
2024/03/20 01:51:53;;;;;;;21.55;20.70;;;;;;;;;;4199645;28;20052;-56
2024/03/20 01:53:55;;;;;;;21.33;20.20;;;;;;;;;;4196342;28;20036;-56
2024/03/20 01:55:56;;;;;;;22.02;21.02;;;;;;;;;;4196253;28;20055;-56
2024/03/20 01:57:56;;;;;;;23.85;22.75;;;;;;;;;;4194794;28;20040;-56
2024/03/20 01:59:57;;;;;;;20.40;19.85;;;;;;;;;;4196140;28;20052;-56
2024/03/20 02:01:58;;;;;;;21.48;20.55;;;;;;;;;;4195999;28;20415;-56
2024/03/20 02:03:58;;;;;;;20.73;20.10;;;;;;;;;;4202040;28;20443;-56
2024/03/20 02:05:59;;;;;;;21.48;20.67;;;;;;;;;;4212613;28;20067;-56
2024/03/20 02:07:59;;;;;;;20.48;19.65;;;;;;;;;;4213014;28;20579;-56
2024/03/20 02:10:05;;;;;;;20.27;19.48;;;;;;;;;;4212743;28;20393;-55
2024/03/20 02:12:05;;;;;;;24.10;22.95;;;;;;;;;;4212850;28;20043;-56
2024/03/20 02:14:06;;;;;;;24.55;23.25;;;;;;;;;;4212750;28;20036;-56
2024/03/20 02:16:07;;;;;;;27.15;25.58;;;;;;;;;;4212711;28;20039;-56
2024/03/20 02:18:08;;;;;;;27.95;26.65;;;;;;;;;;4212710;28;20435;-56
2024/03/20 02:20:10;;;;;;;27.63;25.98;;;;;;;;;;4212737;28;20043;-56
2024/03/20 02:22:10;;;;;;;27.13;25.67;;;;;;;;;;4212742;28;20082;-56
2024/03/20 02:24:11;;;;;;;23.15;22.13;;;;;;;;;;4212777;28;20044;-56
2024/03/20 02:26:12;;;;;;;22.67;21.85;;;;;;;;;;4212523;28;20123;-55
2024/03/20 02:28:12;;;;;;;20.33;19.77;;;;;;;;;;4212766;28;20157;-56
2024/03/20 02:30:13;;;;;;;18.40;18.02;;;;;;;;;;4212423;28;20127;-56
2024/03/20 02:32:13;;;;;;;17.52;17.13;;;;;;;;;;4212564;28;20048;-55
2024/03/20 02:34:14;;;;;;;18.80;18.40;;;;;;;;;;4212598;28;20044;-56
2024/03/20 02:36:14;;;;;;;19.25;18.70;;;;;;;;;;4212613;28;20048;-55
2024/03/20 02:38:15;;;;;;;20.25;19.75;;;;;;;;;;4212702;28;20036;-56
2024/03/20 02:40:15;;;;;;;19.92;19.42;;;;;;;;;;4212699;28;20039;-56
2024/03/20 02:42:16;;;;;;;21.02;20.60;;;;;;;;;;4212161;28;20044;-56
2024/03/20 02:44:17;;;;;;;19.13;18.63;;;;;;;;;;4212604;28;20074;-56
2024/03/20 02:46:17;;;;;;;20.88;20.38;;;;;;;;;;4212481;28;20043;-56
2024/03/20 02:48:18;;;;;;;18.80;18.27;;;;;;;;;;4197759;28;20044;-56
2024/03/20 02:50:18;;;;;;;17.25;16.85;;;;;;;;;;4195607;28;20470;-56
2024/03/20 02:52:19;;;;;;;17.15;16.60;;;;;;;;;;4195725;28;20044;-56
2024/03/20 02:54:20;;;;;;;19.52;18.80;;;;;;;;;;4195793;28;20127;-55
2024/03/20 02:56:20;;;;;;;17.08;16.60;;;;;;;;;;4211724;28;20446;-56
2024/03/20 02:58:21;;;;;;;17.15;16.55;;;;;;;;;;4223168;28;20039;-56
2024/03/20 03:00:21;;;;;;;20.15;19.63;;;;;;;;;;4221803;28;20115;-56
2024/03/20 03:02:22;;;;;;;21.50;20.48;;;;;;;;;;4212671;28;20050;-56
2024/03/20 03:04:23;;;;;;;22.05;21.15;;;;;;;;;;4212168;28;20056;-56
2024/03/20 03:06:23;;;;;;;22.92;21.92;;;;;;;;;;4212376;28;20077;-56
2024/03/20 03:08:24;;;;;;;29.17;27.75;;;;;;;;;;4212372;28;20044;-56
2024/03/20 03:10:25;;;;;;;29.48;28.33;;;;;;;;;;4212598;28;20517;-56
2024/03/20 03:12:25;;;;;;;27.88;26.60;;;;;;;;;;4212400;28;20473;-56
2024/03/20 03:14:26;;;;;;;28.52;27.52;;;;;;;;;;4213336;28;20174;-56
2024/03/20 03:16:26;;;;;;;31.05;29.60;;;;;;;;;;4215560;28;20071;-55
2024/03/20 03:18:27;;;;;;;30.45;29.23;;;;;;;;;;4215359;28;20499;-57
2024/03/20 03:20:27;;;;;;;30.75;29.42;;;;;;;;;;4215486;28;20039;-56
2024/03/20 03:22:28;;;;;;;28.88;27.75;;;;;;;;;;4215293;28;20044;-57
2024/03/20 03:24:29;;;;;;;33.50;32.10;;;;;;;;;;4215383;28;20051;-56
2024/03/20 03:26:32;;;;;;;30.85;29.55;;;;;;;;;;4215344;28;20085;-54
2024/03/20 03:28:32;;;;;;;30.13;29.13;;;;;;;;;;4215529;28;20051;-55
2024/03/20 03:30:33;;;;;;;30.88;29.88;;;;;;;;;;4214804;28;20120;-56
2024/03/20 03:32:36;;;;;;;29.95;28.70;;;;;;;;;;4214148;28;20036;-55
2024/03/20 03:34:37;;;;;;;30.25;29.10;;;;;;;;;;4213742;28;20254;-57
2024/03/20 03:36:37;;;;;;;32.90;31.67;;;;;;;;;;4213580;28;20056;-56
2024/03/20 03:38:38;;;;;;;33.05;31.80;;;;;;;;;;4213471;28;20039;-55
2024/03/20 03:40:38;;;;;;;31.77;30.38;;;;;;;;;;4213758;28;20043;-55
2024/03/20 03:42:39;;;;;;;34.45;32.78;;;;;;;;;;4213713;28;20384;-56
2024/03/20 03:44:40;;;;;;;33.65;32.13;;;;;;;;;;4197821;28;20091;-56
2024/03/20 03:46:41;;;;;;;29.20;28.08;;;;;;;;;;4196808;28;20407;-56
2024/03/20 03:48:42;;;;;;;29.38;28.25;;;;;;;;;;4197098;28;20416;-56
2024/03/20 03:50:43;;;;;;;29.73;28.50;;;;;;;;;;4198436;28;20044;-56
2024/03/20 03:52:43;;;;;;;28.05;27.00;;;;;;;;;;4210234;28;20086;-56
2024/03/20 03:54:44;;;;;;;30.95;29.75;;;;;;;;;;4198059;28;20048;-56
2024/03/20 03:56:44;;;;;;;32.58;31.10;;;;;;;;;;4214948;28;20131;-56
2024/03/20 03:58:45;;;;;;;30.48;29.17;;;;;;;;;;4214632;28;20047;-56
2024/03/20 04:00:45;;;;;;;31.75;30.35;;;;;;;;;;4214743;28;20032;-56
2024/03/20 04:02:46;;;;;;;30.35;29.25;;;;;;;;;;4214687;28;20036;-56
2024/03/20 04:04:48;;;;;;;31.38;30.05;;;;;;;;;;4213545;28;20056;-56
2024/03/20 04:06:49;;;;;;;33.10;31.55;;;;;;;;;;4213748;28;20036;-56
2024/03/20 04:08:49;;;;;;;33.50;32.00;;;;;;;;;;4213631;28;20044;-55
2024/03/20 04:10:50;;;;;;;31.70;30.48;;;;;;;;;;4213710;28;20044;-56
2024/03/20 04:12:50;;;;;;;32.60;31.45;;;;;;;;;;4213694;28;20562;-56
2024/03/20 04:14:51;;;;;;;32.97;31.58;;;;;;;;;;4213696;28;20058;-56
2024/03/20 04:16:51;;;;;;;29.08;28.02;;;;;;;;;;4213662;28;20198;-56
2024/03/20 04:18:52;;;;;;;33.80;32.17;;;;;;;;;;4213545;28;20491;-56
2024/03/20 04:20:52;;;;;;;30.48;28.95;;;;;;;;;;4213670;28;20438;-56
2024/03/20 04:22:53;;;;;;;31.33;30.02;;;;;;;;;;4213657;28;20068;-57
2024/03/20 04:24:54;;;;;;;33.10;31.80;;;;;;;;;;4196911;28;20381;-56
2024/03/20 04:26:54;;;;;;;31.85;30.55;;;;;;;;;;4213442;28;20039;-56
2024/03/20 04:28:55;;;;;;;30.58;29.58;;;;;;;;;;4213543;28;20093;-56
2024/03/20 04:30:55;;;;;;;31.98;30.77;;;;;;;;;;4213361;28;20051;-56
2024/03/20 04:32:56;;;;;;;30.38;29.20;;;;;;;;;;4213509;28;20040;-56
2024/03/20 04:34:56;;;;;;;29.27;27.98;;;;;;;;;;4213561;28;20055;-57
2024/03/20 04:36:57;;;;;;;29.15;27.98;;;;;;;;;;4213351;28;20510;-56
2024/03/20 04:38:58;;;;;;;28.00;27.05;;;;;;;;;;4213286;28;20047;-57
2024/03/20 04:40:58;;;;;;;27.73;26.60;;;;;;;;;;4197293;28;20592;-56
2024/03/20 04:42:59;;;;;;;31.38;30.23;;;;;;;;;;4196547;28;20041;-56
2024/03/20 04:45:00;;;;;;;32.80;31.48;;;;;;;;;;4196745;28;20511;-56
2024/03/20 04:47:01;;;;;;;33.78;32.38;;;;;;;;;;4196574;28;20591;-56
2024/03/20 04:49:01;;;;;;;34.53;33.05;;;;;;;;;;4196526;28;20048;-57
2024/03/20 04:51:02;;;;;;;30.95;29.85;;;;;;;;;;4196405;28;20413;-57
2024/03/20 04:53:03;;;;;;;36.13;34.35;;;;;;;;;;4205130;28;20081;-56
2024/03/20 04:55:07;;;;;;;35.95;34.35;;;;;;;;;;4213282;28;20154;-56
2024/03/20 04:57:08;;;;;;;34.42;33.03;;;;;;;;;;4213125;28;20051;-56
2024/03/20 04:59:08;;;;;;;32.45;31.08;;;;;;;;;;4212936;28;20036;-56
2024/03/20 05:01:09;;;;;;;32.83;31.52;;;;;;;;;;4196445;28;20039;-56
2024/03/20 05:03:10;;;;;;;32.47;31.08;;;;;;;;;;4173490;28;1119844;-56
2024/03/20 05:05:10;;;;;;;34.65;32.97;;;;;;;;;;4213483;28;20426;-56
2024/03/20 05:07:11;;;;;;;33.17;31.88;;;;;;;;;;4213733;28;20493;-55
2024/03/20 05:09:12;;;;;;;32.50;31.20;;;;;;;;;;4213588;28;20040;-56
2024/03/20 05:11:13;;;;;;;32.85;31.65;;;;;;;;;;4212268;28;20070;-56
2024/03/20 05:13:14;;;;;;;34.03;32.72;;;;;;;;;;4210186;28;20044;-57
2024/03/20 05:15:14;;;;;;;31.05;29.85;;;;;;;;;;4212057;28;20093;-56
2024/03/20 05:17:15;;;;;;;32.80;31.67;;;;;;;;;;4225529;28;20638;-56
2024/03/20 05:19:15;;;;;;;33.67;32.28;;;;;;;;;;4213513;28;20084;-56
2024/03/20 05:21:16;;;;;;;31.77;30.58;;;;;;;;;;4213491;28;20038;-56
2024/03/20 05:23:17;;;;;;;35.53;34.08;;;;;;;;;;4213379;28;20123;-55
2024/03/20 05:25:17;;;;;;;33.40;32.10;;;;;;;;;;4196837;28;20048;-57
2024/03/20 05:27:18;;;;;;;32.67;31.50;;;;;;;;;;4213427;28;20047;-56
2024/03/20 05:29:19;;;;;;;31.70;30.58;;;;;;;;;;4213505;28;20074;-56
2024/03/20 05:31:27;;;;;;;30.92;29.88;;;;;;;;;;4208609;28;20032;-57
2024/03/20 05:33:27;;;;;;;34.25;32.85;;;;;;;;;;4210520;28;20443;-56
2024/03/20 05:35:28;;;;;;;32.42;30.90;;;;;;;;;;4211643;28;20059;-56
2024/03/20 05:37:28;;;;;;;31.73;30.05;;;;;;;;;;4196403;28;20036;-56
2024/03/20 05:39:29;;;;;;;32.97;31.70;;;;;;;;;;4213342;28;20044;-55
2024/03/20 05:41:29;;;;;;;35.70;34.38;;;;;;;;;;4213206;28;20464;-56
2024/03/20 05:43:30;;;;;;;35.13;33.80;;;;;;;;;;4211214;28;20036;-56
2024/03/20 05:45:31;;;;;;;34.25;32.92;;;;;;;;;;4206448;28;20542;-56
2024/03/20 05:47:31;;;;;;;34.03;32.83;;;;;;;;;;4202988;28;20043;-56
2024/03/20 05:49:32;;;;;;;34.22;32.92;;;;;;;;;;4212811;28;20062;-56
2024/03/20 05:51:33;;;;;;;34.25;32.95;;;;;;;;;;4196270;28;20450;-55
2024/03/20 05:53:33;;;;;;;33.10;31.90;;;;;;;;;;4212876;28;20040;-56
2024/03/20 05:55:34;;;;;;;35.33;33.90;;;;;;;;;;4212942;28;20036;-56
2024/03/20 05:57:34;;;;;;;34.13;32.72;;;;;;;;;;4212823;28;20044;-56
2024/03/20 05:59:35;;;;;;;35.15;33.92;;;;;;;;;;4212855;28;20123;-55
2024/03/20 06:01:35;;;;;;;32.83;31.42;;;;;;;;;;4213074;28;20118;-56
2024/03/20 06:03:36;;;;;;;36.15;34.95;;;;;;;;;;4212475;28;20063;-56
2024/03/20 06:05:37;;;;;;;33.80;32.50;;;;;;;;;;4212058;28;20482;-56
2024/03/20 06:07:38;;;;;;;33.17;31.83;;;;;;;;;;4212517;28;20050;-54
2024/03/20 06:09:39;;;;;;;29.27;28.35;;;;;;;;;;4212759;28;20040;-56
2024/03/20 06:11:40;;;;;;;31.65;30.60;;;;;;;;;;4212515;28;20044;-56
2024/03/20 06:13:41;;;;;;;32.35;31.35;;;;;;;;;;4212429;28;20039;-56
2024/03/20 06:15:41;;;;;;;34.63;33.50;;;;;;;;;;4212663;28;20101;-55
2024/03/20 06:17:43;;;;;;;32.20;31.05;;;;;;;;;;4212126;28;20443;-57
2024/03/20 06:19:44;;;;;;;29.48;28.58;;;;;;;;;;4212637;28;20126;-65
2024/03/20 06:21:44;;;;;;;31.58;30.48;;;;;;;;;;4215537;28;20060;-65
2024/03/20 06:23:46;;;;;;;31.23;30.17;;;;;;;;;;4229295;28;20133;-65
2024/03/20 06:25:46;;;;;;;28.50;27.63;;;;;;;;;;4213717;28;20039;-65
2024/03/20 06:27:47;;;;;;;27.17;26.48;;;;;;;;;;4213384;28;20036;-65
2024/03/20 06:29:50;;;;;;;26.27;25.67;;;;;;;;;;4212133;28;20533;-65
2024/03/20 06:31:53;;;;;;;25.60;25.08;;;;;;;;;;4209857;28;20040;-65
2024/03/20 06:33:54;;;;;;;26.02;25.33;;;;;;;;;;4201050;28;20036;-65
2024/03/20 06:35:54;;;;;;;28.60;27.90;;;;;;;;;;4196267;28;20465;-65
2024/03/20 06:37:55;;;;;;;23.98;23.42;;;;;;;;;;4193990;28;20033;-65
2024/03/20 06:39:56;;;;;;;25.63;25.02;;;;;;;;;;4194425;28;20040;-65
2024/03/20 06:41:56;;;;;;;23.42;22.92;;;;;;;;;;4178992;28;20070;-65
2024/03/20 06:43:57;;;;;;;23.35;22.70;;;;;;;;;;4195704;28;20045;-65
2024/03/20 06:45:57;;;;;;;21.08;20.67;;;;;;;;;;4206927;28;20132;-65
2024/03/20 06:47:59;;;;;;;21.25;20.85;;;;;;;;;;4206494;28;20572;-64
2024/03/20 06:49:59;;;;;;;24.15;23.52;;;;;;;;;;4211322;28;20048;-64
2024/03/20 06:52:00;;;;;;;24.65;24.00;;;;;;;;;;4209936;28;20123;-64
2024/03/20 06:54:09;;;;;;;27.30;26.50;;;;;;;;;;4212042;28;20044;-65
2024/03/20 06:56:11;;;;;;;27.23;26.33;;;;;;;;;;4213098;28;20546;-65
2024/03/20 06:58:11;;;;;;;27.33;26.13;;;;;;;;;;4213969;28;20040;-65
2024/03/20 07:00:17;;;;;;;29.10;28.00;;;;;;;;;;4197015;28;20559;-64
2024/03/20 07:02:17;;;;;;;29.17;27.95;;;;;;;;;;4214009;28;20036;-64
2024/03/20 07:04:18;;;;;;;24.88;24.10;;;;;;;;;;4213920;28;20056;-65
2024/03/20 07:06:18;;;;;;;29.73;28.67;;;;;;;;;;4215397;28;20044;-65
2024/03/20 07:08:19;;;;;;;28.08;27.05;;;;;;;;;;4213548;28;20044;-65
2024/03/20 07:10:20;;;;;;;23.33;22.60;;;;;;;;;;4215232;28;20071;-66
2024/03/20 07:12:20;;;;;;;19.65;19.02;;;;;;;;;;4215214;28;20047;-66
2024/03/20 07:14:21;;;;;;;18.40;18.08;;;;;;;;;;4214029;28;20051;-65
2024/03/20 07:16:22;;;;;;;18.58;17.58;;;;;;;;;;4214174;28;20055;-66
2024/03/20 07:18:22;;;;;;;21.40;20.75;;;;;;;;;;4212996;28;20047;-66
2024/03/20 07:20:24;;;;;;;18.15;17.75;;;;;;;;;;4214208;28;20043;-64
2024/03/20 07:22:25;;;;;;;18.98;18.13;;;;;;;;;;4215093;28;20040;-64
2024/03/20 07:24:26;;;;;;;18.05;17.55;;;;;;;;;;4214687;28;20043;-65
2024/03/20 07:26:26;;;;;;;17.05;16.55;;;;;;;;;;4214042;28;20046;-64
2024/03/20 07:28:27;;;;;;;17.25;16.92;;;;;;;;;;4215176;28;20071;-64
2024/03/20 07:30:27;;;;;;;13.57;13.48;;;;;;;;;;4214869;28;20067;-64
2024/03/20 07:32:28;;;;;;;12.68;12.40;;;;;;;;;;4214895;28;20415;-63
2024/03/20 07:34:29;;;;;;;7.25;7.03;;;;;;;;;;4212916;28;20173;-64
2024/03/20 07:36:29;;;;;;;5.82;5.72;;;;;;;;;;4212921;28;20153;-65
2024/03/20 07:38:30;;;;;;;6.18;6.07;;;;;;;;;;4214998;28;20036;-64
2024/03/20 07:40:33;;;;;;;6.80;6.60;;;;;;;;;;4212653;28;20042;-64
2024/03/20 07:42:34;;;;;;;5.28;5.18;;;;;;;;;;4196348;28;20045;-64
2024/03/20 07:44:36;;;;;;;5.85;5.55;;;;;;;;;;4213329;28;20036;-64
2024/03/20 07:46:36;;;;;;;5.75;5.45;;;;;;;;;;4214965;28;20051;-64
2024/03/20 07:48:39;;;;;;;6.40;6.30;;;;;;;;;;4213872;28;20165;-64
2024/03/20 07:50:40;;;;;;;6.38;6.03;;;;;;;;;;4214857;28;20040;-64
2024/03/20 07:52:41;;;;;;;6.22;6.10;;;;;;;;;;4213964;28;20043;-64
2024/03/20 07:54:41;;;;;;;6.10;5.90;;;;;;;;;;4213843;28;20127;-64
2024/03/20 07:56:42;;;;;;;6.10;6.00;;;;;;;;;;4197298;28;20083;-63
2024/03/20 07:58:42;;;;;;;6.53;6.22;;;;;;;;;;4212861;28;20039;-64
2024/03/20 08:00:44;;;;;;;6.32;5.93;;;;;;;;;;4212340;28;20032;-63
2024/03/20 08:02:45;;;;;;;12.05;7.60;;;;;;;;;;4213756;28;20040;-64
2024/03/20 08:04:46;;;;;;;6.10;5.50;;;;;;;;;;4214477;28;20052;-64
2024/03/20 08:06:46;;;;;;;4.60;4.43;;;;;;;;;;4214854;28;20475;-64
2024/03/20 08:08:47;;;;;;;3.83;3.53;;;;;;;;;;4213604;28;20040;-63
2024/03/20 08:10:48;;;;;;;4.78;4.68;;;;;;;;;;4212192;28;20044;-63
2024/03/20 08:12:48;;;;;;;5.05;4.95;;;;;;;;;;4213326;28;20055;-64
2024/03/20 08:14:51;;;;;;;5.38;5.07;;;;;;;;;;4210773;28;20044;-63
2024/03/20 08:16:53;;;;;;;6.35;5.72;;;;;;;;;;4212811;28;20090;-64
2024/03/20 08:18:53;;;;;;;4.43;4.30;;;;;;;;;;4212513;28;20052;-63
2024/03/20 08:20:54;;;;;;;4.47;4.38;;;;;;;;;;4213557;28;20509;-63
2024/03/20 08:22:55;;;;;;;4.60;4.50;;;;;;;;;;4213053;28;20047;-64
2024/03/20 08:24:56;;;;;;;4.40;4.30;;;;;;;;;;4213193;28;20036;-63
2024/03/20 08:26:58;;;;;;;4.85;4.70;;;;;;;;;;4212971;28;20146;-64
2024/03/20 08:28:58;;;;;;;3.80;3.60;;;;;;;;;;4212591;28;20415;-64
2024/03/20 08:30:59;;;;;;;4.93;4.60;;;;;;;;;;4212995;28;20119;-66
2024/03/20 08:32:59;;;;;;;3.83;3.72;;;;;;;;;;4214462;28;20067;-66
2024/03/20 08:35:01;;;;;;;4.28;4.18;;;;;;;;;;4212681;28;20127;-65
2024/03/20 08:37:02;;;;;;;6.97;4.47;;;;;;;;;;4212488;28;20047;-66
2024/03/20 08:39:02;;;;;;;4.10;3.90;;;;;;;;;;4213109;28;20067;-65
2024/03/20 08:41:03;;;;;;;4.15;3.80;;;;;;;;;;4214133;28;20381;-66
2024/03/20 08:43:04;;;;;;;3.40;3.30;;;;;;;;;;4213238;28;20043;-66
2024/03/20 08:45:05;;;;;;;4.25;4.10;;;;;;;;;;4212035;28;20085;-66
2024/03/20 08:47:06;;;;;;;3.70;3.60;;;;;;;;;;4212298;28;20039;-66
2024/03/20 08:49:10;;;;;;;2.95;2.95;;;;;;;;;;4207878;28;20040;-66
2024/03/20 08:51:11;;;;;;;3.30;2.97;;;;;;;;;;4210923;28;20431;-67
2024/03/20 08:53:12;;;;;;;2.85;2.85;;;;;;;;;;4212169;28;20169;-66
2024/03/20 08:55:12;;;;;;;3.28;3.28;;;;;;;;;;4209161;28;20040;-66
2024/03/20 08:57:13;;;;;;;3.10;3.10;;;;;;;;;;4213120;28;20118;-66
2024/03/20 08:59:14;;;;;;;2.97;2.97;;;;;;;;;;4212594;28;20580;-67
2024/03/20 09:01:14;;;;;;;2.30;2.30;;;;;;;;;;4213859;28;20134;-66
2024/03/20 09:03:15;;;;;;;2.42;2.42;;;;;;;;;;4195111;28;20044;-66
2024/03/20 09:05:15;;;;;;;1.83;1.83;;;;;;;;;;4211402;28;20040;-66
2024/03/20 09:07:16;;;;;;;2.08;1.92;;;;;;;;;;4211103;28;20032;-66
2024/03/20 09:09:17;;;;;;;2.00;2.00;;;;;;;;;;4194720;28;20417;-66
2024/03/20 09:11:18;;;;;;;1.90;1.85;;;;;;;;;;4211935;28;20093;-66
2024/03/20 09:13:19;;;;;;;1.77;1.77;;;;;;;;;;4212890;28;20048;-66
2024/03/20 09:15:19;;;;;;;2.00;2.00;;;;;;;;;;4213595;28;20466;-67
2024/03/20 09:17:20;;;;;;;1.75;1.65;;;;;;;;;;4212586;28;20052;-67
2024/03/20 09:19:21;;;;;;;1.92;1.92;;;;;;;;;;4211420;28;20129;-66
2024/03/20 09:21:22;;;;;;;1.75;1.75;;;;;;;;;;4212143;28;20036;-67
2024/03/20 09:23:23;;;;;;;1.88;1.88;;;;;;;;;;4213426;28;20040;-66
2024/03/20 09:25:24;;;;;;;2.22;2.03;;;;;;;;;;4212565;28;20048;-67
2024/03/20 09:27:24;;;;;;;1.50;1.50;;;;;;;;;;4212136;28;20514;-66
2024/03/20 09:29:25;;;;;;;2.35;1.90;;;;;;;;;;4213213;28;20080;-66
2024/03/20 09:31:26;;;;;;;2.47;2.38;;;;;;;;;;4204512;28;20052;-66
2024/03/20 09:33:27;;;;;;;2.67;2.10;;;;;;;;;;4212192;28;20054;-66
2024/03/20 09:35:28;;;;;;;2.40;2.40;;;;;;;;;;4212526;28;20048;-66
2024/03/20 09:37:30;;;;;;;2.50;1.67;;;;;;;;;;4212139;28;20072;-65
2024/03/20 09:39:31;;;;;;;2.08;2.08;;;;;;;;;;4211260;28;20032;-66
2024/03/20 09:41:32;;;;;;;1.75;1.65;;;;;;;;;;4212417;28;20071;-64
2024/03/20 09:43:32;;;;;;;1.73;1.60;;;;;;;;;;4213186;28;20070;-64
2024/03/20 09:45:33;;;;;;;1.52;1.52;;;;;;;;;;4210352;28;20028;-64
2024/03/20 09:47:34;;;;;;;2.15;2.05;;;;;;;;;;4211982;28;20036;-64
2024/03/20 09:49:36;;;;;;;2.03;2.03;;;;;;;;;;4213198;28;20040;-64
2024/03/20 09:51:36;;;;;;;2.15;2.05;;;;;;;;;;4211391;28;20530;-64
2024/03/20 09:53:37;;;;;;;1.40;1.40;;;;;;;;;;4211421;28;20094;-64
2024/03/20 09:55:41;;;;;;;1.60;1.52;;;;;;;;;;4211892;28;20059;-64
2024/03/20 09:57:42;;;;;;;1.80;1.80;;;;;;;;;;4210423;28;20490;-64
2024/03/20 09:59:47;;;;;;;1.67;1.55;;;;;;;;;;4210588;28;20504;-64
2024/03/20 10:01:47;;;;;;;5.63;1.63;;;;;;;;;;4211767;28;20039;-64
2024/03/20 10:03:54;;;;;;;1.67;1.58;;;;;;;;;;4211155;28;20146;-64
2024/03/20 10:05:55;;;;;;;1.40;1.30;;;;;;;;;;4212104;28;20047;-64
2024/03/20 10:07:57;;;;;;;2.08;1.45;;;;;;;;;;4211884;28;20523;-64
2024/03/20 10:09:57;;;;;;;1.50;1.50;;;;;;;;;;4211753;28;20036;-64
2024/03/20 10:11:58;;;;;;;1.60;1.55;;;;;;;;;;4211568;28;20036;-64
2024/03/20 10:13:59;;;;;;;1.10;1.10;;;;;;;;;;4211227;28;20032;-64
2024/03/20 10:16:17;;;;;;;1.20;1.20;;;;;;;;;;4211099;28;20059;-64
2024/03/20 10:18:18;;;;;;;1.20;1.20;;;;;;;;;;4210255;28;20110;-64
2024/03/20 10:20:19;;;;;;;1.50;1.50;;;;;;;;;;4212722;28;20499;-64
2024/03/20 10:22:20;;;;;;;1.30;1.30;;;;;;;;;;4212447;28;20040;-64
2024/03/20 10:24:21;;;;;;;1.10;1.10;;;;;;;;;;4210467;28;20580;-64
2024/03/20 10:26:22;;;;;;;1.23;1.23;;;;;;;;;;4211419;28;20048;-64
2024/03/20 10:28:27;;;;;;;1.10;1.10;;;;;;;;;;4209764;28;20089;-64
2024/03/20 10:30:28;;;;;;;1.00;1.00;;;;;;;;;;4207486;28;20032;-65
2024/03/20 10:32:29;;;;;;;1.00;1.00;;;;;;;;;;4210744;28;20074;-64
2024/03/20 10:34:29;;;;;;;1.10;1.10;;;;;;;;;;4212023;28;20040;-64
2024/03/20 10:36:32;;;;;;;1.15;1.10;;;;;;;;;;4212382;28;20048;-65
2024/03/20 10:38:32;;;;;;;1.13;1.00;;;;;;;;;;4211746;28;20028;-64
2024/03/20 10:40:33;;;;;;;1.00;1.00;;;;;;;;;;4210524;28;20078;-65
2024/03/20 10:42:36;;;;;;;2.58;1.17;;;;;;;;;;4209912;28;20042;-65
2024/03/20 10:44:37;;;;;;;1.10;1.00;;;;;;;;;;4209209;28;20036;-64
2024/03/20 10:46:37;;;;;;;1.00;1.00;;;;;;;;;;4212168;28;20055;-64
2024/03/20 10:48:38;;;;;;;1.00;1.00;;;;;;;;;;4193117;28;20044;-65
2024/03/20 10:50:39;;;;;;;0.90;0.90;;;;;;;;;;4212436;28;20044;-66
2024/03/20 10:52:40;;;;;;;0.90;0.90;;;;;;;;;;4210847;28;20509;-67
2024/03/20 10:54:41;;;;;;;0.93;0.90;;;;;;;;;;4211521;28;20048;-67
2024/03/20 10:56:42;;;;;;;0.98;0.98;;;;;;;;;;4212168;28;20044;-67
2024/03/20 10:58:46;;;;;;;0.90;0.90;;;;;;;;;;4211303;28;20055;-67
2024/03/20 11:00:47;;;;;;;0.90;0.90;;;;;;;;;;4211598;28;20435;-66
2024/03/20 11:02:48;;;;;;;0.90;0.90;;;;;;;;;;4209375;28;20043;-67
2024/03/20 11:04:48;;;;;;;0.90;0.90;;;;;;;;;;4212088;28;20500;-67
2024/03/20 11:06:49;;;;;;;1.48;0.90;;;;;;;;;;4212474;28;20106;-67
2024/03/20 11:08:53;;;;;;;0.90;0.90;;;;;;;;;;4209191;28;20087;-67
2024/03/20 11:10:54;;;;;;;0.90;0.90;;;;;;;;;;4211608;28;20404;-68
2024/03/20 11:13:00;;;;;;;0.90;0.90;;;;;;;;;;4210238;28;20105;-66
2024/03/20 11:15:01;;;;;;;0.90;0.90;;;;;;;;;;4210618;28;20040;-67
2024/03/20 11:17:03;;;;;;;1.15;1.15;;;;;;;;;;4209446;28;20090;-67
2024/03/20 11:19:06;;;;;;;0.90;0.90;;;;;;;;;;4209191;28;20431;-67
2024/03/20 11:21:06;;;;;;;0.90;0.90;;;;;;;;;;4212214;28;20032;-67
2024/03/20 11:23:10;;;;;;;0.88;0.88;;;;;;;;;;4211005;28;20098;-67
2024/03/20 11:25:11;;;;;;;1.00;1.00;;;;;;;;;;4212139;28;20036;-67
2024/03/20 11:27:12;;;;;;;1.35;0.90;;;;;;;;;;4211834;28;20404;-67
2024/03/20 11:29:12;;;;;;;0.90;0.90;;;;;;;;;;4208911;28;20047;-67
2024/03/20 11:31:13;;;;;;;0.90;0.90;;;;;;;;;;4206655;28;20044;-67
2024/03/20 11:33:14;;;;;;;0.80;0.80;;;;;;;;;;4209552;28;20064;-67
2024/03/20 11:35:15;;;;;;;0.90;0.90;;;;;;;;;;4210138;28;20071;-67
2024/03/20 11:37:16;;;;;;;0.80;0.80;;;;;;;;;;4213248;28;20044;-67
2024/03/20 11:39:17;;;;;;;0.90;0.90;;;;;;;;;;4202826;28;20044;-67
2024/03/20 11:41:17;;;;;;;0.80;0.80;;;;;;;;;;4211260;28;20056;-67
2024/03/20 11:43:18;;;;;;;0.80;0.80;;;;;;;;;;4213279;28;20123;-67
2024/03/20 11:45:19;;;;;;;0.80;0.80;;;;;;;;;;4211263;28;20067;-68
2024/03/20 11:47:19;;;;;;;0.88;0.88;;;;;;;;;;4211937;28;20774;-67
2024/03/20 11:49:20;;;;;;;0.80;0.80;;;;;;;;;;4210628;28;20047;-66
2024/03/20 11:51:23;;;;;;;0.80;0.80;;;;;;;;;;4210771;28;20095;-65